sensor_id;sensor_type;location;lat;lon;timestamp;pressure;altitude;pressure_sealevel;temperature;humidity
2339;BME280;1180;51.438;6.978;2023-01-28T00:01:36;101494.31;;;5.61;77.29
2339;BME280;1180;51.438;6.978;2023-01-28T00:04:01;101491.50;;;5.75;76.79
2339;BME280;1180;51.438;6.978;2023-01-28T00:06:27;101493.06;;;5.82;76.00
2339;BME280;1180;51.438;6.978;2023-01-28T00:08:52;101484.94;;;5.63;76.26
2339;BME280;1180;51.438;6.978;2023-01-28T00:11:19;101480.84;;;5.54;76.25
2339;BME280;1180;51.438;6.978;2023-01-28T00:13:50;101482.94;;;5.33;76.91
2339;BME280;1180;51.438;6.978;2023-01-28T00:16:16;101489.34;;;5.55;77.33
2339;BME280;1180;51.438;6.978;2023-01-28T00:18:41;101481.59;;;5.59;76.53
2339;BME280;1180;51.438;6.978;2023-01-28T00:21:10;101477.16;;;5.69;76.07
2339;BME280;1180;51.438;6.978;2023-01-28T00:23:38;101485.00;;;5.58;76.20
2339;BME280;1180;51.438;6.978;2023-01-28T00:26:10;101485.47;;;5.32;77.22
2339;BME280;1180;51.438;6.978;2023-01-28T00:28:35;101488.78;;;5.37;76.73
2339;BME280;1180;51.438;6.978;2023-01-28T00:31:08;101489.06;;;5.20;76.72
2339;BME280;1180;51.438;6.978;2023-01-28T00:33:37;101494.75;;;4.84;78.38
2339;BME280;1180;51.438;6.978;2023-01-28T00:36:03;101493.63;;;5.01;78.34
2339;BME280;1180;51.438;6.978;2023-01-28T00:38:31;101492.59;;;5.13;78.03
2339;BME280;1180;51.438;6.978;2023-01-28T00:41:12;101500.44;;;5.00;77.36
2339;BME280;1180;51.438;6.978;2023-01-28T00:43:38;101497.19;;;4.90;78.34
2339;BME280;1180;51.438;6.978;2023-01-28T00:46:05;101501.09;;;5.12;77.88
2339;BME280;1180;51.438;6.978;2023-01-28T00:48:38;101494.91;;;5.27;77.04
2339;BME280;1180;51.438;6.978;2023-01-28T00:51:05;101496.25;;;5.46;77.02
2339;BME280;1180;51.438;6.978;2023-01-28T00:53:32;101496.06;;;5.57;75.57
2339;BME280;1180;51.438;6.978;2023-01-28T00:55:59;101489.91;;;5.71;75.41
2339;BME280;1180;51.438;6.978;2023-01-28T00:58:25;101495.78;;;5.73;74.80
2339;BME280;1180;51.438;6.978;2023-01-28T01:00:50;101501.38;;;5.45;74.49
2339;BME280;1180;51.438;6.978;2023-01-28T01:03:16;101500.06;;;5.22;75.83
2339;BME280;1180;51.438;6.978;2023-01-28T01:05:42;101496.38;;;5.40;75.97
2339;BME280;1180;51.438;6.978;2023-01-28T01:08:08;101497.84;;;5.54;75.39
2339;BME280;1180;51.438;6.978;2023-01-28T01:10:33;101499.28;;;5.67;74.87
2339;BME280;1180;51.438;6.978;2023-01-28T01:12:59;101490.69;;;5.73;74.20
2339;BME280;1180;51.438;6.978;2023-01-28T01:15:25;101493.56;;;5.56;74.59
2339;BME280;1180;51.438;6.978;2023-01-28T01:17:50;101494.63;;;5.42;75.19
2339;BME280;1180;51.438;6.978;2023-01-28T01:20:19;101491.25;;;4.90;77.00
2339;BME280;1180;51.438;6.978;2023-01-28T01:22:45;101487.88;;;4.88;77.57
2339;BME280;1180;51.438;6.978;2023-01-28T01:25:12;101488.03;;;4.77;77.87
2339;BME280;1180;51.438;6.978;2023-01-28T01:27:38;101493.03;;;4.85;78.32
2339;BME280;1180;51.438;6.978;2023-01-28T01:30:04;101485.00;;;5.08;77.43
2339;BME280;1180;51.438;6.978;2023-01-28T01:32:31;101490.50;;;5.35;77.07
2339;BME280;1180;51.438;6.978;2023-01-28T01:34:59;101489.75;;;5.30;76.88
2339;BME280;1180;51.438;6.978;2023-01-28T01:37:24;101494.38;;;5.08;76.47
2339;BME280;1180;51.438;6.978;2023-01-28T01:39:49;101497.34;;;5.33;77.01
2339;BME280;1180;51.438;6.978;2023-01-28T01:42:15;101498.03;;;5.43;76.31
2339;BME280;1180;51.438;6.978;2023-01-28T01:49:56;101507.41;;;4.86;76.67
2339;BME280;1180;51.438;6.978;2023-01-28T01:52:31;101509.03;;;4.91;77.46
2339;BME280;1180;51.438;6.978;2023-01-28T01:55:00;101514.06;;;4.95;77.10
2339;BME280;1180;51.438;6.978;2023-01-28T01:57:30;101511.97;;;4.65;78.63
2339;BME280;1180;51.438;6.978;2023-01-28T01:59:57;101517.78;;;4.73;78.18
2339;BME280;1180;51.438;6.978;2023-01-28T02:02:53;101516.25;;;4.61;77.64
2339;BME280;1180;51.438;6.978;2023-01-28T02:05:20;101510.38;;;4.56;77.47
2339;BME280;1180;51.438;6.978;2023-01-28T02:07:48;101526.00;;;4.27;78.94
2339;BME280;1180;51.438;6.978;2023-01-28T02:10:15;101532.00;;;4.21;78.25
2339;BME280;1180;51.438;6.978;2023-01-28T02:12:48;101525.13;;;4.29;79.45
2339;BME280;1180;51.438;6.978;2023-01-28T02:15:18;101517.09;;;4.60;78.79
2339;BME280;1180;51.438;6.978;2023-01-28T02:17:45;101522.53;;;4.34;77.93
2339;BME280;1180;51.438;6.978;2023-01-28T02:20:19;101522.88;;;4.06;78.67
2339;BME280;1180;51.438;6.978;2023-01-28T02:23:11;101532.44;;;3.81;78.96
2339;BME280;1180;51.438;6.978;2023-01-28T02:26:08;101534.97;;;3.82;79.18
2339;BME280;1180;51.438;6.978;2023-01-28T02:31:39;101530.25;;;3.45;79.29
2339;BME280;1180;51.438;6.978;2023-01-28T02:34:18;101539.53;;;3.44;79.95
2339;BME280;1180;51.438;6.978;2023-01-28T02:36:54;101540.22;;;3.64;78.52
2339;BME280;1180;51.438;6.978;2023-01-28T02:39:28;101540.97;;;3.75;78.89
2339;BME280;1180;51.438;6.978;2023-01-28T02:42:05;101541.63;;;3.93;77.16
2339;BME280;1180;51.438;6.978;2023-01-28T02:44:31;101529.66;;;4.04;76.49
2339;BME280;1180;51.438;6.978;2023-01-28T02:46:57;101539.00;;;4.02;76.58
2339;BME280;1180;51.438;6.978;2023-01-28T02:49:52;101546.59;;;4.05;76.41
2339;BME280;1180;51.438;6.978;2023-01-28T02:55:42;101541.28;;;4.24;75.99
2339;BME280;1180;51.438;6.978;2023-01-28T02:58:54;101535.38;;;4.23;75.65
2339;BME280;1180;51.438;6.978;2023-01-28T03:01:38;101530.53;;;4.03;75.13
2339;BME280;1180;51.438;6.978;2023-01-28T03:04:19;101537.25;;;4.07;74.68
2339;BME280;1180;51.438;6.978;2023-01-28T03:06:53;101534.78;;;3.99;75.41
2339;BME280;1180;51.438;6.978;2023-01-28T03:09:21;101538.34;;;3.86;74.58
2339;BME280;1180;51.438;6.978;2023-01-28T03:12:11;101525.44;;;4.03;74.78
2339;BME280;1180;51.438;6.978;2023-01-28T03:15:00;101526.91;;;4.23;73.66
2339;BME280;1180;51.438;6.978;2023-01-28T03:17:48;101530.38;;;4.17;73.82
2339;BME280;1180;51.438;6.978;2023-01-28T03:23:53;101526.94;;;4.19;73.95
2339;BME280;1180;51.438;6.978;2023-01-28T03:27:04;101515.31;;;3.98;72.05
2339;BME280;1180;51.438;6.978;2023-01-28T03:29:50;101526.19;;;4.11;72.14
2339;BME280;1180;51.438;6.978;2023-01-28T03:32:37;101516.78;;;4.21;72.28
2339;BME280;1180;51.438;6.978;2023-01-28T03:35:23;101518.16;;;4.45;72.06
2339;BME280;1180;51.438;6.978;2023-01-28T03:38:11;101522.38;;;4.46;71.69
2339;BME280;1180;51.438;6.978;2023-01-28T03:41:01;101522.41;;;4.43;70.56
2339;BME280;1180;51.438;6.978;2023-01-28T03:43:28;101526.97;;;4.18;70.57
2339;BME280;1180;51.438;6.978;2023-01-28T03:45:53;101525.38;;;4.08;71.96
2339;BME280;1180;51.438;6.978;2023-01-28T03:48:21;101530.56;;;3.97;71.82
2339;BME280;1180;51.438;6.978;2023-01-28T03:50:47;101525.59;;;3.87;71.82
2339;BME280;1180;51.438;6.978;2023-01-28T03:53:16;101538.19;;;4.00;72.39
2339;BME280;1180;51.438;6.978;2023-01-28T03:55:42;101533.03;;;4.06;72.28
2339;BME280;1180;51.438;6.978;2023-01-28T03:58:08;101535.34;;;4.26;72.69
2339;BME280;1180;51.438;6.978;2023-01-28T04:00:34;101535.94;;;4.45;72.29
2339;BME280;1180;51.438;6.978;2023-01-28T04:03:09;101530.13;;;4.37;71.17
2339;BME280;1180;51.438;6.978;2023-01-28T04:05:58;101536.72;;;3.77;71.54
2339;BME280;1180;51.438;6.978;2023-01-28T04:08:24;101544.06;;;4.03;72.57
2339;BME280;1180;51.438;6.978;2023-01-28T04:10:49;101548.50;;;3.86;72.80
2339;BME280;1180;51.438;6.978;2023-01-28T04:13:16;101546.03;;;3.78;72.34
2339;BME280;1180;51.438;6.978;2023-01-28T04:15:42;101550.72;;;4.14;71.92
2339;BME280;1180;51.438;6.978;2023-01-28T04:18:09;101553.00;;;4.36;72.03
2339;BME280;1180;51.438;6.978;2023-01-28T04:20:34;101542.53;;;4.59;70.90
2339;BME280;1180;51.438;6.978;2023-01-28T04:23:00;101542.41;;;4.70;70.13
2339;BME280;1180;51.438;6.978;2023-01-28T04:25:25;101542.41;;;4.71;69.20
2339;BME280;1180;51.438;6.978;2023-01-28T04:27:51;101551.56;;;4.82;68.95
2339;BME280;1180;51.438;6.978;2023-01-28T04:30:16;101552.47;;;4.77;68.29
2339;BME280;1180;51.438;6.978;2023-01-28T04:32:42;101559.97;;;4.87;69.09
2339;BME280;1180;51.438;6.978;2023-01-28T04:35:08;101555.59;;;4.95;68.94
2339;BME280;1180;51.438;6.978;2023-01-28T04:37:33;101556.66;;;4.83;67.88
2339;BME280;1180;51.438;6.978;2023-01-28T04:39:58;101559.41;;;4.66;68.76
2339;BME280;1180;51.438;6.978;2023-01-28T04:42:24;101557.69;;;4.68;69.10
2339;BME280;1180;51.438;6.978;2023-01-28T04:44:49;101551.63;;;4.79;69.52
2339;BME280;1180;51.438;6.978;2023-01-28T04:47:14;101555.81;;;4.81;68.68
2339;BME280;1180;51.438;6.978;2023-01-28T04:49:40;101552.47;;;4.76;69.02
2339;BME280;1180;51.438;6.978;2023-01-28T04:52:05;101550.56;;;4.92;69.34
2339;BME280;1180;51.438;6.978;2023-01-28T04:54:30;101552.25;;;4.95;69.16
2339;BME280;1180;51.438;6.978;2023-01-28T04:56:56;101546.75;;;4.61;68.87
2339;BME280;1180;51.438;6.978;2023-01-28T04:59:21;101548.03;;;4.26;70.64
2339;BME280;1180;51.438;6.978;2023-01-28T05:01:48;101542.91;;;4.31;70.14
2339;BME280;1180;51.438;6.978;2023-01-28T05:04:14;101546.72;;;3.94;70.26
2339;BME280;1180;51.438;6.978;2023-01-28T05:06:40;101544.31;;;3.79;69.86
2339;BME280;1180;51.438;6.978;2023-01-28T05:09:05;101552.13;;;3.58;71.55
2339;BME280;1180;51.438;6.978;2023-01-28T05:11:31;101540.19;;;3.70;70.66
2339;BME280;1180;51.438;6.978;2023-01-28T05:13:56;101547.66;;;3.81;70.40
2339;BME280;1180;51.438;6.978;2023-01-28T05:16:22;101554.88;;;3.34;70.47
2339;BME280;1180;51.438;6.978;2023-01-28T05:18:47;101543.84;;;3.38;70.78
2339;BME280;1180;51.438;6.978;2023-01-28T05:21:15;101541.94;;;3.61;70.55
2339;BME280;1180;51.438;6.978;2023-01-28T05:23:41;101541.72;;;3.85;69.56
2339;BME280;1180;51.438;6.978;2023-01-28T05:26:07;101549.22;;;3.97;69.03
2339;BME280;1180;51.438;6.978;2023-01-28T05:28:32;101553.44;;;3.98;69.53
2339;BME280;1180;51.438;6.978;2023-01-28T05:31:02;101553.31;;;4.09;69.11
2339;BME280;1180;51.438;6.978;2023-01-28T05:33:28;101557.66;;;3.99;68.73
2339;BME280;1180;51.438;6.978;2023-01-28T05:35:53;101555.00;;;4.10;68.87
2339;BME280;1180;51.438;6.978;2023-01-28T05:38:18;101553.25;;;4.17;68.04
2339;BME280;1180;51.438;6.978;2023-01-28T05:40:44;101552.84;;;3.71;68.59
2339;BME280;1180;51.438;6.978;2023-01-28T05:43:09;101549.16;;;4.02;68.89
2339;BME280;1180;51.438;6.978;2023-01-28T05:45:34;101560.81;;;4.20;68.17
2339;BME280;1180;51.438;6.978;2023-01-28T05:48:00;101567.78;;;4.02;68.04
2339;BME280;1180;51.438;6.978;2023-01-28T05:50:25;101564.19;;;4.21;67.89
2339;BME280;1180;51.438;6.978;2023-01-28T05:52:50;101566.03;;;4.09;67.92
2339;BME280;1180;51.438;6.978;2023-01-28T05:55:16;101578.00;;;3.96;68.34
2339;BME280;1180;51.438;6.978;2023-01-28T05:57:41;101582.47;;;3.74;68.20
2339;BME280;1180;51.438;6.978;2023-01-28T06:00:09;101598.69;;;3.56;69.16
2339;BME280;1180;51.438;6.978;2023-01-28T06:02:34;101592.72;;;3.60;68.95
2339;BME280;1180;51.438;6.978;2023-01-28T06:04:59;101587.63;;;3.65;69.68
2339;BME280;1180;51.438;6.978;2023-01-28T06:07:25;101579.84;;;3.82;68.91
2339;BME280;1180;51.438;6.978;2023-01-28T06:09:50;101583.94;;;3.95;67.76
2339;BME280;1180;51.438;6.978;2023-01-28T06:12:16;101584.25;;;3.59;68.61
2339;BME280;1180;51.438;6.978;2023-01-28T06:14:42;101587.41;;;3.86;67.91
2339;BME280;1180;51.438;6.978;2023-01-28T06:17:07;101583.66;;;3.31;68.38
2339;BME280;1180;51.438;6.978;2023-01-28T06:19:33;101584.38;;;3.45;69.65
2339;BME280;1180;51.438;6.978;2023-01-28T06:21:58;101594.69;;;3.24;68.59
2339;BME280;1180;51.438;6.978;2023-01-28T06:24:23;101593.66;;;3.50;68.80
2339;BME280;1180;51.438;6.978;2023-01-28T06:26:49;101585.69;;;3.88;67.57
2339;BME280;1180;51.438;6.978;2023-01-28T06:29:14;101578.69;;;4.11;67.16
2339;BME280;1180;51.438;6.978;2023-01-28T06:31:39;101582.88;;;4.18;66.69
2339;BME280;1180;51.438;6.978;2023-01-28T06:34:05;101582.72;;;4.32;65.97
2339;BME280;1180;51.438;6.978;2023-01-28T06:36:30;101578.50;;;4.29;65.41
2339;BME280;1180;51.438;6.978;2023-01-28T06:38:56;101591.28;;;4.23;65.55
2339;BME280;1180;51.438;6.978;2023-01-28T06:41:21;101586.13;;;4.28;65.12
2339;BME280;1180;51.438;6.978;2023-01-28T06:43:46;101580.97;;;4.37;65.23
2339;BME280;1180;51.438;6.978;2023-01-28T06:46:12;101588.47;;;4.46;65.27
2339;BME280;1180;51.438;6.978;2023-01-28T06:48:37;101582.53;;;4.47;65.17
2339;BME280;1180;51.438;6.978;2023-01-28T06:51:03;101578.47;;;4.34;64.79
2339;BME280;1180;51.438;6.978;2023-01-28T06:53:28;101574.25;;;4.31;65.25
2339;BME280;1180;51.438;6.978;2023-01-28T06:55:53;101571.56;;;4.42;64.90
2339;BME280;1180;51.438;6.978;2023-01-28T06:58:19;101570.59;;;4.53;64.53
2339;BME280;1180;51.438;6.978;2023-01-28T07:00:44;101574.06;;;4.45;64.48
2339;BME280;1180;51.438;6.978;2023-01-28T07:03:10;101576.59;;;4.47;64.38
2339;BME280;1180;51.438;6.978;2023-01-28T07:05:35;101576.66;;;4.41;63.73
2339;BME280;1180;51.438;6.978;2023-01-28T07:08:00;101580.03;;;4.44;63.90
2339;BME280;1180;51.438;6.978;2023-01-28T07:10:27;101582.56;;;4.44;63.92
2339;BME280;1180;51.438;6.978;2023-01-28T07:12:52;101591.06;;;4.42;64.29
2339;BME280;1180;51.438;6.978;2023-01-28T07:15:18;101589.50;;;4.30;63.86
2339;BME280;1180;51.438;6.978;2023-01-28T07:17:43;101600.16;;;3.80;64.67
2339;BME280;1180;51.438;6.978;2023-01-28T07:20:11;101600.34;;;3.58;66.22
2339;BME280;1180;51.438;6.978;2023-01-28T07:22:39;101602.69;;;3.83;66.69
2339;BME280;1180;51.438;6.978;2023-01-28T07:25:06;101589.78;;;4.03;65.63
2339;BME280;1180;51.438;6.978;2023-01-28T07:27:31;101590.56;;;4.10;65.02
2339;BME280;1180;51.438;6.978;2023-01-28T07:29:56;101591.41;;;4.12;64.04
2339;BME280;1180;51.438;6.978;2023-01-28T07:32:22;101585.56;;;4.02;64.98
2339;BME280;1180;51.438;6.978;2023-01-28T07:34:47;101594.00;;;4.06;64.63
2339;BME280;1180;51.438;6.978;2023-01-28T07:37:13;101594.97;;;3.94;64.86
2339;BME280;1180;51.438;6.978;2023-01-28T07:39:38;101593.41;;;3.78;65.57
2339;BME280;1180;51.438;6.978;2023-01-28T07:42:04;101602.78;;;3.74;65.77
2339;BME280;1180;51.438;6.978;2023-01-28T07:44:29;101610.34;;;3.77;65.33
2339;BME280;1180;51.438;6.978;2023-01-28T07:46:54;101601.81;;;3.84;65.41
2339;BME280;1180;51.438;6.978;2023-01-28T07:49:20;101596.81;;;3.78;65.30
2339;BME280;1180;51.438;6.978;2023-01-28T07:51:45;101594.41;;;3.59;66.03
2339;BME280;1180;51.438;6.978;2023-01-28T07:54:12;101595.91;;;3.84;66.29
2339;BME280;1180;51.438;6.978;2023-01-28T07:56:38;101604.25;;;3.94;65.81
2339;BME280;1180;51.438;6.978;2023-01-28T07:59:03;101613.63;;;3.88;65.60
2339;BME280;1180;51.438;6.978;2023-01-28T08:01:29;101617.09;;;3.83;66.04
2339;BME280;1180;51.438;6.978;2023-01-28T08:03:54;101617.06;;;3.86;65.58
2339;BME280;1180;51.438;6.978;2023-01-28T08:06:19;101617.97;;;3.77;65.41
2339;BME280;1180;51.438;6.978;2023-01-28T08:08:46;101628.13;;;3.75;65.95
2339;BME280;1180;51.438;6.978;2023-01-28T08:11:11;101636.53;;;3.87;65.89
2339;BME280;1180;51.438;6.978;2023-01-28T08:13:37;101633.09;;;3.89;66.03
2339;BME280;1180;51.438;6.978;2023-01-28T08:16:02;101638.09;;;4.00;66.29
2339;BME280;1180;51.438;6.978;2023-01-28T08:18:27;101642.50;;;3.78;66.34
2339;BME280;1180;51.438;6.978;2023-01-28T08:20:57;101638.66;;;3.26;66.97
2339;BME280;1180;51.438;6.978;2023-01-28T08:23:23;101642.56;;;3.72;67.42
2339;BME280;1180;51.438;6.978;2023-01-28T08:25:52;101644.81;;;4.06;65.69
2339;BME280;1180;51.438;6.978;2023-01-28T08:28:19;101637.88;;;4.21;65.44
2339;BME280;1180;51.438;6.978;2023-01-28T08:30:45;101638.78;;;4.16;65.72
2339;BME280;1180;51.438;6.978;2023-01-28T08:33:12;101644.84;;;4.03;66.17
2339;BME280;1180;51.438;6.978;2023-01-28T08:35:38;101653.16;;;4.17;66.08
2339;BME280;1180;51.438;6.978;2023-01-28T08:38:05;101654.81;;;4.22;65.31
2339;BME280;1180;51.438;6.978;2023-01-28T08:40:31;101651.31;;;4.33;65.61
2339;BME280;1180;51.438;6.978;2023-01-28T08:42:57;101664.28;;;4.07;65.31
2339;BME280;1180;51.438;6.978;2023-01-28T08:45:25;101666.09;;;3.94;65.02
2339;BME280;1180;51.438;6.978;2023-01-28T08:47:52;101682.34;;;3.73;65.87
2339;BME280;1180;51.438;6.978;2023-01-28T08:50:19;101685.66;;;3.81;65.21
2339;BME280;1180;51.438;6.978;2023-01-28T08:52:45;101687.31;;;3.85;65.57
2339;BME280;1180;51.438;6.978;2023-01-28T08:55:12;101694.03;;;3.94;64.43
2339;BME280;1180;51.438;6.978;2023-01-28T08:57:38;101705.91;;;3.87;64.80
2339;BME280;1180;51.438;6.978;2023-01-28T09:00:04;101706.00;;;3.78;65.18
2339;BME280;1180;51.438;6.978;2023-01-28T09:02:30;101710.19;;;3.81;65.73
2339;BME280;1180;51.438;6.978;2023-01-28T09:04:55;101710.97;;;3.90;65.49
2339;BME280;1180;51.438;6.978;2023-01-28T09:07:21;101710.88;;;4.04;64.91
2339;BME280;1180;51.438;6.978;2023-01-28T09:09:46;101716.88;;;3.94;64.12
2339;BME280;1180;51.438;6.978;2023-01-28T09:12:11;101714.44;;;3.82;64.85
2339;BME280;1180;51.438;6.978;2023-01-28T09:14:36;101714.25;;;4.05;65.09
2339;BME280;1180;51.438;6.978;2023-01-28T09:17:05;101721.00;;;4.09;65.08
2339;BME280;1180;51.438;6.978;2023-01-28T09:19:30;101719.38;;;4.02;64.87
2339;BME280;1180;51.438;6.978;2023-01-28T09:21:55;101716.25;;;3.63;64.73
2339;BME280;1180;51.438;6.978;2023-01-28T09:24:21;101724.66;;;3.74;65.36
2339;BME280;1180;51.438;6.978;2023-01-28T09:26:50;101726.47;;;3.53;65.59
2339;BME280;1180;51.438;6.978;2023-01-28T09:29:16;101713.59;;;3.80;64.99
2339;BME280;1180;51.438;6.978;2023-01-28T09:31:42;101712.75;;;3.79;64.19
2339;BME280;1180;51.438;6.978;2023-01-28T09:34:08;101725.59;;;3.56;65.46
2339;BME280;1180;51.438;6.978;2023-01-28T09:36:34;101731.41;;;3.75;65.69
2339;BME280;1180;51.438;6.978;2023-01-28T09:39:00;101734.22;;;3.27;66.63
2339;BME280;1180;51.438;6.978;2023-01-28T09:41:28;101737.53;;;3.38;67.42
2339;BME280;1180;51.438;6.978;2023-01-28T09:46:46;101735.91;;;3.26;67.72
2339;BME280;1180;51.438;6.978;2023-01-28T09:49:43;101743.34;;;3.57;67.80
2339;BME280;1180;51.438;6.978;2023-01-28T09:52:15;101741.06;;;3.06;67.17
2339;BME280;1180;51.438;6.978;2023-01-28T09:54:44;101730.03;;;3.20;67.70
2339;BME280;1180;51.438;6.978;2023-01-28T09:57:22;101730.03;;;3.15;68.10
2339;BME280;1180;51.438;6.978;2023-01-28T09:59:49;101734.31;;;3.03;67.89
2339;BME280;1180;51.438;6.978;2023-01-28T10:02:41;101726.56;;;3.38;67.10
2339;BME280;1180;51.438;6.978;2023-01-28T10:05:19;101732.41;;;3.47;66.90
2339;BME280;1180;51.438;6.978;2023-01-28T10:07:56;101733.50;;;2.98;66.77
2339;BME280;1180;51.438;6.978;2023-01-28T10:10:49;101731.72;;;3.11;68.10
2339;BME280;1180;51.438;6.978;2023-01-28T10:13:36;101730.13;;;2.92;67.92
2339;BME280;1180;51.438;6.978;2023-01-28T10:16:23;101732.50;;;3.34;66.46
2339;BME280;1180;51.438;6.978;2023-01-28T10:19:21;101736.66;;;3.49;66.70
2339;BME280;1180;51.438;6.978;2023-01-28T10:21:56;101726.47;;;3.52;67.26
2339;BME280;1180;51.438;6.978;2023-01-28T10:24:35;101727.34;;;3.44;67.83
2339;BME280;1180;51.438;6.978;2023-01-28T10:27:14;101714.50;;;3.72;66.89
2339;BME280;1180;51.438;6.978;2023-01-28T10:29:40;101710.25;;;3.74;67.17
2339;BME280;1180;51.438;6.978;2023-01-28T10:32:27;101700.81;;;3.90;66.26
2339;BME280;1180;51.438;6.978;2023-01-28T10:34:53;101703.38;;;3.87;65.56
2339;BME280;1180;51.438;6.978;2023-01-28T10:37:20;101701.63;;;3.97;65.92
2339;BME280;1180;51.438;6.978;2023-01-28T10:39:45;101704.16;;;3.99;65.19
2339;BME280;1180;51.438;6.978;2023-01-28T10:42:24;101704.97;;;4.01;64.90
2339;BME280;1180;51.438;6.978;2023-01-28T10:44:52;101712.56;;;4.04;65.05
2339;BME280;1180;51.438;6.978;2023-01-28T10:47:28;101709.41;;;3.74;64.94
2339;BME280;1180;51.438;6.978;2023-01-28T10:49:57;101718.69;;;3.78;65.56
2339;BME280;1180;51.438;6.978;2023-01-28T10:52:24;101723.75;;;3.80;65.62
2339;BME280;1180;51.438;6.978;2023-01-28T10:55:01;101736.50;;;3.75;65.41
2339;BME280;1180;51.438;6.978;2023-01-28T10:57:27;101734.91;;;3.55;66.03
2339;BME280;1180;51.438;6.978;2023-01-28T10:59:53;101741.50;;;3.84;66.19
2339;BME280;1180;51.438;6.978;2023-01-28T11:02:23;101745.03;;;3.58;65.31
2339;BME280;1180;51.438;6.978;2023-01-28T11:07:25;101741.03;;;3.18;67.21
2339;BME280;1180;51.438;6.978;2023-01-28T11:09:51;101751.28;;;2.84;68.38
2339;BME280;1180;51.438;6.978;2023-01-28T11:12:21;101752.03;;;3.13;68.32
2339;BME280;1180;51.438;6.978;2023-01-28T11:14:52;101754.44;;;3.44;67.21
2339;BME280;1180;51.438;6.978;2023-01-28T11:17:18;101752.78;;;3.40;66.83
2339;BME280;1180;51.438;6.978;2023-01-28T11:19:44;101757.84;;;3.35;66.93
2339;BME280;1180;51.438;6.978;2023-01-28T11:22:22;101757.03;;;3.35;66.42
2339;BME280;1180;51.438;6.978;2023-01-28T11:24:49;101758.56;;;3.60;66.18
2339;BME280;1180;51.438;6.978;2023-01-28T11:27:16;101757.78;;;3.54;65.97
2339;BME280;1180;51.438;6.978;2023-01-28T11:29:43;101740.72;;;3.76;64.73
2339;BME280;1180;51.438;6.978;2023-01-28T11:32:19;101743.31;;;3.67;65.37
2339;BME280;1180;51.438;6.978;2023-01-28T11:34:50;101741.28;;;4.11;64.21
2339;BME280;1180;51.438;6.978;2023-01-28T11:37:15;101740.56;;;3.96;63.94
2339;BME280;1180;51.438;6.978;2023-01-28T11:39:41;101738.88;;;3.95;63.91
2339;BME280;1180;51.438;6.978;2023-01-28T11:42:20;101725.38;;;3.88;64.04
2339;BME280;1180;51.438;6.978;2023-01-28T11:44:47;101732.75;;;4.19;64.24
2339;BME280;1180;51.438;6.978;2023-01-28T11:50:04;101728.69;;;4.01;64.04
2339;BME280;1180;51.438;6.978;2023-01-28T11:52:54;101732.22;;;3.79;64.09
2339;BME280;1180;51.438;6.978;2023-01-28T11:58:02;101727.28;;;3.60;65.48
2339;BME280;1180;51.438;6.978;2023-01-28T12:09:12;101718.06;;;3.42;65.65
2339;BME280;1180;51.438;6.978;2023-01-28T12:20:02;101686.19;;;4.19;65.67
2339;BME280;1180;51.438;6.978;2023-01-28T12:23:15;101685.91;;;4.50;63.96
2339;BME280;1180;51.438;6.978;2023-01-28T12:41:28;101636.00;;;5.09;60.21
2339;BME280;1180;51.438;6.978;2023-01-28T12:43:59;101629.00;;;5.25;59.63
2339;BME280;1180;51.438;6.978;2023-01-28T12:46:44;101617.31;;;5.10;60.32
2339;BME280;1180;51.438;6.978;2023-01-28T12:49:34;101590.81;;;5.23;59.54
2339;BME280;1180;51.438;6.978;2023-01-28T12:52:15;101587.25;;;5.37;59.46
2339;BME280;1180;51.438;6.978;2023-01-28T12:55:00;101587.97;;;5.43;59.73
2339;BME280;1180;51.438;6.978;2023-01-28T12:57:31;101573.53;;;5.44;58.97
2339;BME280;1180;51.438;6.978;2023-01-28T13:00:33;101588.16;;;5.32;57.92
2339;BME280;1180;51.438;6.978;2023-01-28T13:03:16;101593.25;;;5.31;58.93
2339;BME280;1180;51.438;6.978;2023-01-28T13:05:49;101595.59;;;5.43;58.62
2339;BME280;1180;51.438;6.978;2023-01-28T13:08:23;101614.38;;;5.38;59.28
2339;BME280;1180;51.438;6.978;2023-01-28T13:10:49;101618.41;;;5.51;59.19
2339;BME280;1180;51.438;6.978;2023-01-28T13:13:28;101618.25;;;5.60;58.26
2339;BME280;1180;51.438;6.978;2023-01-28T13:15:54;101625.94;;;5.57;57.88
2339;BME280;1180;51.438;6.978;2023-01-28T13:18:46;101635.25;;;5.60;58.18
2339;BME280;1180;51.438;6.978;2023-01-28T13:23:47;101616.66;;;5.55;58.11
2339;BME280;1180;51.438;6.978;2023-01-28T13:28:48;101619.50;;;5.88;58.29
2339;BME280;1180;51.438;6.978;2023-01-28T13:31:19;101623.56;;;5.98;57.95
2339;BME280;1180;51.438;6.978;2023-01-28T13:39:13;101624.91;;;6.21;57.32
2339;BME280;1180;51.438;6.978;2023-01-28T13:41:41;101636.84;;;6.19;56.93
2339;BME280;1180;51.438;6.978;2023-01-28T13:46:51;101632.16;;;5.39;56.81
2339;BME280;1180;51.438;6.978;2023-01-28T13:49:46;101624.00;;;5.18;57.88
2339;BME280;1180;51.438;6.978;2023-01-28T13:54:40;101643.75;;;5.57;57.23
2339;BME280;1180;51.438;6.978;2023-01-28T14:05:41;101665.63;;;4.42;60.73
2339;BME280;1180;51.438;6.978;2023-01-28T14:08:42;101653.75;;;4.43;60.37
2339;BME280;1180;51.438;6.978;2023-01-28T14:14:24;101643.19;;;4.79;59.65
2339;BME280;1180;51.438;6.978;2023-01-28T14:16:56;101646.88;;;5.20;59.24
2339;BME280;1180;51.438;6.978;2023-01-28T14:19:28;101634.66;;;5.42;57.84
2339;BME280;1180;51.438;6.978;2023-01-28T14:21:56;101626.25;;;5.37;57.52
2339;BME280;1180;51.438;6.978;2023-01-28T14:24:22;101609.88;;;5.54;57.44
2339;BME280;1180;51.438;6.978;2023-01-28T14:29:49;101602.72;;;5.74;56.83
2339;BME280;1180;51.438;6.978;2023-01-28T14:32:21;101590.16;;;5.67;57.11
2339;BME280;1180;51.438;6.978;2023-01-28T14:34:51;101596.06;;;5.69;56.57
2339;BME280;1180;51.438;6.978;2023-01-28T14:37:28;101600.56;;;5.51;56.77
2339;BME280;1180;51.438;6.978;2023-01-28T14:39:57;101602.22;;;5.55;56.66
2339;BME280;1180;51.438;6.978;2023-01-28T14:42:26;101597.00;;;5.63;57.41
2339;BME280;1180;51.438;6.978;2023-01-28T14:45:06;101583.22;;;5.73;56.97
2339;BME280;1180;51.438;6.978;2023-01-28T14:47:50;101573.84;;;5.75;56.79
2339;BME280;1180;51.438;6.978;2023-01-28T14:50:36;101570.97;;;5.94;57.28
2339;BME280;1180;51.438;6.978;2023-01-28T14:58:22;101588.81;;;5.94;56.49
2339;BME280;1180;51.438;6.978;2023-01-28T15:00:57;101595.53;;;6.00;56.60
2339;BME280;1180;51.438;6.978;2023-01-28T15:03:24;101590.22;;;6.12;57.09
2339;BME280;1180;51.438;6.978;2023-01-28T15:06:14;101593.88;;;5.96;56.65
2339;BME280;1180;51.438;6.978;2023-01-28T15:08:40;101600.88;;;5.84;56.34
2339;BME280;1180;51.438;6.978;2023-01-28T15:11:08;101613.66;;;5.83;56.67
2339;BME280;1180;51.438;6.978;2023-01-28T15:13:41;101622.16;;;5.82;56.96